sensor_id;sensor_type;location;lat;lon;timestamp;P1;durP1;ratioP1;P2;durP2;ratioP2
6362;SDS011;3214;49.932;8.494;2024-02-26T00:02:20;2.10;;;1.33;;
6362;SDS011;3214;49.932;8.494;2024-02-26T00:04:47;1.70;;;1.30;;
6362;SDS011;3214;49.932;8.494;2024-02-26T00:07:15;1.57;;;1.33;;
6362;SDS011;3214;49.932;8.494;2024-02-26T00:09:42;1.40;;;1.20;;
6362;SDS011;3214;49.932;8.494;2024-02-26T00:12:10;1.50;;;1.30;;
6362;SDS011;3214;49.932;8.494;2024-02-26T00:14:37;2.60;;;1.20;;
6362;SDS011;3214;49.932;8.494;2024-02-26T00:17:07;1.60;;;1.40;;
6362;SDS011;3214;49.932;8.494;2024-02-26T00:19:35;2.23;;;1.53;;
6362;SDS011;3214;49.932;8.494;2024-02-26T00:22:02;4.83;;;1.40;;
6362;SDS011;3214;49.932;8.494;2024-02-26T00:24:29;1.93;;;1.73;;
6362;SDS011;3214;49.932;8.494;2024-02-26T00:26:56;1.97;;;1.60;;
6362;SDS011;3214;49.932;8.494;2024-02-26T00:29:24;2.90;;;1.50;;
6362;SDS011;3214;49.932;8.494;2024-02-26T00:31:52;1.63;;;1.50;;
6362;SDS011;3214;49.932;8.494;2024-02-26T00:34:21;2.73;;;1.80;;
6362;SDS011;3214;49.932;8.494;2024-02-26T00:36:48;3.10;;;2.30;;
6362;SDS011;3214;49.932;8.494;2024-02-26T00:39:15;4.90;;;2.50;;
6362;SDS011;3214;49.932;8.494;2024-02-26T00:41:43;3.83;;;2.20;;
6362;SDS011;3214;49.932;8.494;2024-02-26T00:44:10;3.20;;;2.00;;
6362;SDS011;3214;49.932;8.494;2024-02-26T00:46:38;2.10;;;1.70;;
6362;SDS011;3214;49.932;8.494;2024-02-26T00:49:05;3.53;;;1.93;;
6362;SDS011;3214;49.932;8.494;2024-02-26T00:51:35;2.47;;;1.80;;
6362;SDS011;3214;49.932;8.494;2024-02-26T00:54:02;1.93;;;1.73;;
6362;SDS011;3214;49.932;8.494;2024-02-26T00:56:30;2.97;;;1.70;;
6362;SDS011;3214;49.932;8.494;2024-02-26T00:58:58;2.13;;;1.70;;
6362;SDS011;3214;49.932;8.494;2024-02-26T01:01:25;2.50;;;1.83;;
6362;SDS011;3214;49.932;8.494;2024-02-26T01:03:52;1.70;;;1.50;;
6362;SDS011;3214;49.932;8.494;2024-02-26T01:06:18;2.73;;;1.77;;
6362;SDS011;3214;49.932;8.494;2024-02-26T01:08:48;2.67;;;1.73;;
6362;SDS011;3214;49.932;8.494;2024-02-26T01:11:15;1.70;;;1.60;;
6362;SDS011;3214;49.932;8.494;2024-02-26T01:13:42;1.40;;;1.30;;
6362;SDS011;3214;49.932;8.494;2024-02-26T01:16:08;3.20;;;1.60;;
6362;SDS011;3214;49.932;8.494;2024-02-26T01:18:35;1.83;;;1.53;;
6362;SDS011;3214;49.932;8.494;2024-02-26T01:21:02;2.17;;;1.73;;
6362;SDS011;3214;49.932;8.494;2024-02-26T01:23:31;2.10;;;1.90;;
6362;SDS011;3214;49.932;8.494;2024-02-26T01:25:59;2.50;;;1.80;;
6362;SDS011;3214;49.932;8.494;2024-02-26T01:28:27;1.60;;;1.50;;
6362;SDS011;3214;49.932;8.494;2024-02-26T01:30:54;1.53;;;1.43;;
6362;SDS011;3214;49.932;8.494;2024-02-26T01:33:21;2.60;;;1.87;;
6362;SDS011;3214;49.932;8.494;2024-02-26T01:35:47;1.97;;;1.70;;
6362;SDS011;3214;49.932;8.494;2024-02-26T01:38:14;2.37;;;1.60;;
6362;SDS011;3214;49.932;8.494;2024-02-26T01:40:41;1.77;;;1.40;;
6362;SDS011;3214;49.932;8.494;2024-02-26T01:43:09;2.20;;;1.53;;
6362;SDS011;3214;49.932;8.494;2024-02-26T01:45:36;1.73;;;1.30;;
6362;SDS011;3214;49.932;8.494;2024-02-26T01:48:02;2.77;;;1.40;;
6362;SDS011;3214;49.932;8.494;2024-02-26T01:50:30;1.80;;;1.50;;
6362;SDS011;3214;49.932;8.494;2024-02-26T01:52:59;2.63;;;1.70;;
6362;SDS011;3214;49.932;8.494;2024-02-26T01:55:26;2.13;;;1.43;;
6362;SDS011;3214;49.932;8.494;2024-02-26T01:57:53;1.70;;;1.40;;
6362;SDS011;3214;49.932;8.494;2024-02-26T02:00:22;2.47;;;1.40;;
6362;SDS011;3214;49.932;8.494;2024-02-26T02:02:49;1.87;;;1.53;;
6362;SDS011;3214;49.932;8.494;2024-02-26T02:05:17;1.27;;;1.17;;
6362;SDS011;3214;49.932;8.494;2024-02-26T02:07:46;2.00;;;1.40;;
6362;SDS011;3214;49.932;8.494;2024-02-26T02:10:14;3.10;;;1.90;;
6362;SDS011;3214;49.932;8.494;2024-02-26T02:12:41;2.40;;;1.70;;
6362;SDS011;3214;49.932;8.494;2024-02-26T02:15:08;2.10;;;1.60;;
6362;SDS011;3214;49.932;8.494;2024-02-26T02:17:36;2.40;;;1.30;;
6362;SDS011;3214;49.932;8.494;2024-02-26T02:20:03;1.60;;;1.20;;
6362;SDS011;3214;49.932;8.494;2024-02-26T02:22:35;2.23;;;1.50;;
6362;SDS011;3214;49.932;8.494;2024-02-26T02:25:01;2.63;;;1.83;;
6362;SDS011;3214;49.932;8.494;2024-02-26T02:27:29;2.73;;;1.60;;
6362;SDS011;3214;49.932;8.494;2024-02-26T02:29:56;3.57;;;1.40;;
6362;SDS011;3214;49.932;8.494;2024-02-26T02:32:23;2.73;;;1.50;;
6362;SDS011;3214;49.932;8.494;2024-02-26T02:34:51;1.50;;;1.40;;
6362;SDS011;3214;49.932;8.494;2024-02-26T02:37:18;2.93;;;1.60;;
6362;SDS011;3214;49.932;8.494;2024-02-26T02:39:46;2.33;;;1.67;;
6362;SDS011;3214;49.932;8.494;2024-02-26T02:42:12;2.10;;;1.53;;
6362;SDS011;3214;49.932;8.494;2024-02-26T02:44:39;3.03;;;1.70;;
6362;SDS011;3214;49.932;8.494;2024-02-26T02:47:06;1.63;;;1.40;;
6362;SDS011;3214;49.932;8.494;2024-02-26T02:49:32;1.87;;;1.50;;
6362;SDS011;3214;49.932;8.494;2024-02-26T02:51:59;2.17;;;1.60;;
6362;SDS011;3214;49.932;8.494;2024-02-26T02:54:26;1.93;;;1.50;;
6362;SDS011;3214;49.932;8.494;2024-02-26T02:56:54;5.40;;;1.70;;
6362;SDS011;3214;49.932;8.494;2024-02-26T02:59:21;2.37;;;1.80;;
6362;SDS011;3214;49.932;8.494;2024-02-26T03:01:47;2.23;;;1.60;;
6362;SDS011;3214;49.932;8.494;2024-02-26T03:04:14;2.77;;;1.60;;
6362;SDS011;3214;49.932;8.494;2024-02-26T03:06:41;2.33;;;1.50;;
6362;SDS011;3214;49.932;8.494;2024-02-26T03:09:07;2.80;;;1.63;;
6362;SDS011;3214;49.932;8.494;2024-02-26T03:11:34;2.40;;;1.50;;
6362;SDS011;3214;49.932;8.494;2024-02-26T03:14:02;3.43;;;1.90;;
6362;SDS011;3214;49.932;8.494;2024-02-26T03:16:30;1.93;;;1.60;;
6362;SDS011;3214;49.932;8.494;2024-02-26T03:18:56;2.80;;;1.90;;
6362;SDS011;3214;49.932;8.494;2024-02-26T03:21:24;2.37;;;1.60;;
6362;SDS011;3214;49.932;8.494;2024-02-26T03:23:52;1.53;;;1.43;;
6362;SDS011;3214;49.932;8.494;2024-02-26T03:26:18;2.10;;;1.50;;
6362;SDS011;3214;49.932;8.494;2024-02-26T03:28:46;1.70;;;1.60;;
6362;SDS011;3214;49.932;8.494;2024-02-26T03:31:14;2.07;;;1.60;;
6362;SDS011;3214;49.932;8.494;2024-02-26T03:33:41;2.53;;;1.63;;
6362;SDS011;3214;49.932;8.494;2024-02-26T03:36:07;2.10;;;1.60;;
6362;SDS011;3214;49.932;8.494;2024-02-26T03:38:34;1.70;;;1.60;;
6362;SDS011;3214;49.932;8.494;2024-02-26T03:41:01;3.23;;;2.00;;
6362;SDS011;3214;49.932;8.494;2024-02-26T03:43:27;2.00;;;1.63;;
6362;SDS011;3214;49.932;8.494;2024-02-26T03:45:54;2.13;;;1.67;;
6362;SDS011;3214;49.932;8.494;2024-02-26T03:48:22;2.20;;;1.70;;
6362;SDS011;3214;49.932;8.494;2024-02-26T03:50:49;2.03;;;1.60;;
6362;SDS011;3214;49.932;8.494;2024-02-26T03:53:15;2.73;;;1.90;;
6362;SDS011;3214;49.932;8.494;2024-02-26T03:55:43;1.80;;;1.70;;
6362;SDS011;3214;49.932;8.494;2024-02-26T03:58:12;1.90;;;1.60;;
6362;SDS011;3214;49.932;8.494;2024-02-26T04:00:38;2.27;;;1.73;;
6362;SDS011;3214;49.932;8.494;2024-02-26T04:03:05;2.50;;;1.80;;
6362;SDS011;3214;49.932;8.494;2024-02-26T04:05:33;2.23;;;1.80;;
6362;SDS011;3214;49.932;8.494;2024-02-26T04:08:00;4.00;;;2.57;;
6362;SDS011;3214;49.932;8.494;2024-02-26T04:10:27;3.60;;;2.03;;
6362;SDS011;3214;49.932;8.494;2024-02-26T04:12:54;3.90;;;1.77;;
6362;SDS011;3214;49.932;8.494;2024-02-26T04:15:20;4.10;;;2.30;;
6362;SDS011;3214;49.932;8.494;2024-02-26T04:17:48;4.77;;;2.17;;
6362;SDS011;3214;49.932;8.494;2024-02-26T04:20:15;4.00;;;2.37;;
6362;SDS011;3214;49.932;8.494;2024-02-26T04:22:43;2.90;;;2.00;;
6362;SDS011;3214;49.932;8.494;2024-02-26T04:25:10;4.90;;;2.10;;
6362;SDS011;3214;49.932;8.494;2024-02-26T04:27:37;2.70;;;2.03;;
6362;SDS011;3214;49.932;8.494;2024-02-26T04:30:04;3.97;;;2.20;;
6362;SDS011;3214;49.932;8.494;2024-02-26T04:32:32;5.63;;;2.33;;
6362;SDS011;3214;49.932;8.494;2024-02-26T04:34:59;3.43;;;2.03;;
6362;SDS011;3214;49.932;8.494;2024-02-26T04:37:26;3.07;;;2.20;;
6362;SDS011;3214;49.932;8.494;2024-02-26T04:39:57;2.73;;;2.00;;
6362;SDS011;3214;49.932;8.494;2024-02-26T04:42:24;3.00;;;2.03;;
6362;SDS011;3214;49.932;8.494;2024-02-26T04:44:51;3.97;;;2.27;;
6362;SDS011;3214;49.932;8.494;2024-02-26T04:47:17;3.13;;;2.30;;
6362;SDS011;3214;49.932;8.494;2024-02-26T04:49:44;3.73;;;2.50;;
6362;SDS011;3214;49.932;8.494;2024-02-26T04:52:11;3.20;;;2.13;;
6362;SDS011;3214;49.932;8.494;2024-02-26T04:54:38;2.30;;;2.03;;
6362;SDS011;3214;49.932;8.494;2024-02-26T04:57:06;3.63;;;2.30;;
6362;SDS011;3214;49.932;8.494;2024-02-26T04:59:34;5.60;;;2.47;;
6362;SDS011;3214;49.932;8.494;2024-02-26T05:02:02;6.80;;;4.57;;
6362;SDS011;3214;49.932;8.494;2024-02-26T05:04:30;2.67;;;2.30;;
6362;SDS011;3214;49.932;8.494;2024-02-26T05:06:57;2.27;;;2.07;;
6362;SDS011;3214;49.932;8.494;2024-02-26T05:09:25;2.00;;;1.80;;
6362;SDS011;3214;49.932;8.494;2024-02-26T05:11:52;3.57;;;2.30;;
6362;SDS011;3214;49.932;8.494;2024-02-26T05:14:20;4.40;;;2.20;;
6362;SDS011;3214;49.932;8.494;2024-02-26T05:16:47;3.33;;;2.13;;
6362;SDS011;3214;49.932;8.494;2024-02-26T05:19:14;2.60;;;2.13;;
6362;SDS011;3214;49.932;8.494;2024-02-26T05:21:41;3.17;;;2.33;;
6362;SDS011;3214;49.932;8.494;2024-02-26T05:24:09;3.43;;;2.30;;
6362;SDS011;3214;49.932;8.494;2024-02-26T05:26:36;3.80;;;2.33;;
6362;SDS011;3214;49.932;8.494;2024-02-26T05:29:03;3.90;;;2.30;;
6362;SDS011;3214;49.932;8.494;2024-02-26T05:31:32;3.20;;;2.67;;
6362;SDS011;3214;49.932;8.494;2024-02-26T05:33:59;2.90;;;2.40;;
6362;SDS011;3214;49.932;8.494;2024-02-26T05:36:26;3.67;;;2.30;;
6362;SDS011;3214;49.932;8.494;2024-02-26T05:38:58;4.03;;;2.53;;
6362;SDS011;3214;49.932;8.494;2024-02-26T05:41:25;4.60;;;2.80;;
6362;SDS011;3214;49.932;8.494;2024-02-26T05:43:51;4.20;;;2.60;;
6362;SDS011;3214;49.932;8.494;2024-02-26T05:46:18;5.90;;;2.87;;
6362;SDS011;3214;49.932;8.494;2024-02-26T05:48:47;4.23;;;2.37;;
6362;SDS011;3214;49.932;8.494;2024-02-26T05:51:15;3.53;;;2.80;;
6362;SDS011;3214;49.932;8.494;2024-02-26T05:53:42;3.37;;;2.40;;
6362;SDS011;3214;49.932;8.494;2024-02-26T05:56:08;3.60;;;2.30;;
6362;SDS011;3214;49.932;8.494;2024-02-26T05:58:35;3.97;;;2.93;;
6362;SDS011;3214;49.932;8.494;2024-02-26T06:01:03;6.37;;;2.80;;
6362;SDS011;3214;49.932;8.494;2024-02-26T06:03:29;4.77;;;2.87;;
6362;SDS011;3214;49.932;8.494;2024-02-26T06:05:57;6.27;;;3.47;;
6362;SDS011;3214;49.932;8.494;2024-02-26T06:08:24;4.43;;;3.17;;
6362;SDS011;3214;49.932;8.494;2024-02-26T06:10:51;5.17;;;2.90;;
6362;SDS011;3214;49.932;8.494;2024-02-26T06:13:17;4.47;;;3.33;;
6362;SDS011;3214;49.932;8.494;2024-02-26T06:15:44;4.73;;;3.70;;
6362;SDS011;3214;49.932;8.494;2024-02-26T06:18:11;6.83;;;3.63;;
6362;SDS011;3214;49.932;8.494;2024-02-26T06:20:37;5.93;;;3.80;;
6362;SDS011;3214;49.932;8.494;2024-02-26T06:23:05;5.57;;;3.97;;
6362;SDS011;3214;49.932;8.494;2024-02-26T06:25:33;5.27;;;3.80;;
6362;SDS011;3214;49.932;8.494;2024-02-26T06:27:59;4.30;;;3.23;;
6362;SDS011;3214;49.932;8.494;2024-02-26T06:30:26;5.97;;;4.30;;
6362;SDS011;3214;49.932;8.494;2024-02-26T06:32:53;5.83;;;3.80;;
6362;SDS011;3214;49.932;8.494;2024-02-26T06:35:20;5.20;;;3.70;;
6362;SDS011;3214;49.932;8.494;2024-02-26T06:37:47;6.10;;;3.63;;
6362;SDS011;3214;49.932;8.494;2024-02-26T06:40:18;4.43;;;3.60;;
6362;SDS011;3214;49.932;8.494;2024-02-26T06:42:45;5.20;;;3.77;;
6362;SDS011;3214;49.932;8.494;2024-02-26T06:45:14;7.40;;;3.97;;
6362;SDS011;3214;49.932;8.494;2024-02-26T06:47:41;5.40;;;3.80;;
6362;SDS011;3214;49.932;8.494;2024-02-26T06:50:11;7.03;;;4.10;;
6362;SDS011;3214;49.932;8.494;2024-02-26T06:52:42;4.40;;;3.87;;
6362;SDS011;3214;49.932;8.494;2024-02-26T06:55:12;5.43;;;3.73;;
6362;SDS011;3214;49.932;8.494;2024-02-26T06:57:40;5.30;;;3.97;;
6362;SDS011;3214;49.932;8.494;2024-02-26T07:00:08;7.87;;;4.03;;
6362;SDS011;3214;49.932;8.494;2024-02-26T07:02:39;5.93;;;3.80;;
6362;SDS011;3214;49.932;8.494;2024-02-26T07:05:06;5.07;;;4.10;;
6362;SDS011;3214;49.932;8.494;2024-02-26T07:07:34;7.53;;;4.70;;
6362;SDS011;3214;49.932;8.494;2024-02-26T07:10:01;6.87;;;4.47;;
6362;SDS011;3214;49.932;8.494;2024-02-26T07:12:30;6.97;;;4.10;;
6362;SDS011;3214;49.932;8.494;2024-02-26T07:14:58;7.27;;;4.37;;
6362;SDS011;3214;49.932;8.494;2024-02-26T07:17:27;6.40;;;4.40;;
6362;SDS011;3214;49.932;8.494;2024-02-26T07:19:54;6.03;;;4.33;;
6362;SDS011;3214;49.932;8.494;2024-02-26T07:22:21;6.43;;;4.10;;
6362;SDS011;3214;49.932;8.494;2024-02-26T07:24:49;6.17;;;4.30;;
6362;SDS011;3214;49.932;8.494;2024-02-26T07:27:15;8.93;;;4.73;;
6362;SDS011;3214;49.932;8.494;2024-02-26T07:29:42;6.93;;;4.60;;
6362;SDS011;3214;49.932;8.494;2024-02-26T07:32:11;8.53;;;4.40;;
6362;SDS011;3214;49.932;8.494;2024-02-26T07:34:38;7.60;;;4.63;;
6362;SDS011;3214;49.932;8.494;2024-02-26T07:37:06;7.77;;;5.10;;
6362;SDS011;3214;49.932;8.494;2024-02-26T07:39:33;6.43;;;4.57;;
6362;SDS011;3214;49.932;8.494;2024-02-26T07:42:00;8.33;;;4.93;;
6362;SDS011;3214;49.932;8.494;2024-02-26T07:44:27;8.37;;;5.10;;
6362;SDS011;3214;49.932;8.494;2024-02-26T07:46:54;6.63;;;4.70;;
6362;SDS011;3214;49.932;8.494;2024-02-26T07:49:23;7.47;;;4.53;;
6362;SDS011;3214;49.932;8.494;2024-02-26T07:51:50;6.80;;;4.50;;
6362;SDS011;3214;49.932;8.494;2024-02-26T07:54:17;9.40;;;4.93;;
6362;SDS011;3214;49.932;8.494;2024-02-26T07:56:46;9.53;;;5.07;;
6362;SDS011;3214;49.932;8.494;2024-02-26T07:59:13;8.60;;;4.80;;
6362;SDS011;3214;49.932;8.494;2024-02-26T08:01:41;7.10;;;4.67;;
6362;SDS011;3214;49.932;8.494;2024-02-26T08:04:11;6.23;;;4.67;;
6362;SDS011;3214;49.932;8.494;2024-02-26T08:06:39;7.67;;;4.77;;
6362;SDS011;3214;49.932;8.494;2024-02-26T08:09:06;5.73;;;4.57;;
6362;SDS011;3214;49.932;8.494;2024-02-26T08:11:33;7.10;;;4.43;;
6362;SDS011;3214;49.932;8.494;2024-02-26T08:14:03;6.47;;;4.50;;
6362;SDS011;3214;49.932;8.494;2024-02-26T08:16:30;9.70;;;5.17;;
6362;SDS011;3214;49.932;8.494;2024-02-26T08:18:56;7.80;;;5.20;;
6362;SDS011;3214;49.932;8.494;2024-02-26T08:21:24;7.23;;;5.10;;
6362;SDS011;3214;49.932;8.494;2024-02-26T08:23:53;7.50;;;5.23;;
6362;SDS011;3214;49.932;8.494;2024-02-26T08:26:20;9.37;;;4.97;;
6362;SDS011;3214;49.932;8.494;2024-02-26T08:28:47;7.53;;;4.63;;
6362;SDS011;3214;49.932;8.494;2024-02-26T08:31:16;7.13;;;4.60;;
6362;SDS011;3214;49.932;8.494;2024-02-26T08:33:43;9.33;;;5.00;;
6362;SDS011;3214;49.932;8.494;2024-02-26T08:36:11;7.80;;;4.57;;
6362;SDS011;3214;49.932;8.494;2024-02-26T08:38:38;7.73;;;4.97;;
6362;SDS011;3214;49.932;8.494;2024-02-26T08:41:06;9.57;;;5.30;;
6362;SDS011;3214;49.932;8.494;2024-02-26T08:43:33;7.10;;;4.73;;
6362;SDS011;3214;49.932;8.494;2024-02-26T08:46:00;9.13;;;5.33;;
6362;SDS011;3214;49.932;8.494;2024-02-26T08:48:28;7.73;;;5.60;;
6362;SDS011;3214;49.932;8.494;2024-02-26T08:50:54;8.23;;;5.20;;
6362;SDS011;3214;49.932;8.494;2024-02-26T08:53:21;8.33;;;5.37;;
6362;SDS011;3214;49.932;8.494;2024-02-26T08:55:48;8.63;;;5.20;;
6362;SDS011;3214;49.932;8.494;2024-02-26T08:58:18;8.53;;;5.70;;
6362;SDS011;3214;49.932;8.494;2024-02-26T09:00:45;8.73;;;6.03;;
6362;SDS011;3214;49.932;8.494;2024-02-26T09:03:12;9.93;;;5.53;;
6362;SDS011;3214;49.932;8.494;2024-02-26T09:05:39;10.03;;;6.13;;
6362;SDS011;3214;49.932;8.494;2024-02-26T09:08:10;10.43;;;6.17;;
6362;SDS011;3214;49.932;8.494;2024-02-26T09:10:37;10.80;;;6.23;;
6362;SDS011;3214;49.932;8.494;2024-02-26T09:13:04;10.07;;;6.30;;
6362;SDS011;3214;49.932;8.494;2024-02-26T09:15:33;10.43;;;6.27;;
6362;SDS011;3214;49.932;8.494;2024-02-26T09:18:00;9.63;;;6.20;;
6362;SDS011;3214;49.932;8.494;2024-02-26T09:20:28;8.10;;;5.87;;
6362;SDS011;3214;49.932;8.494;2024-02-26T09:23:10;9.37;;;6.23;;
6362;SDS011;3214;49.932;8.494;2024-02-26T09:25:37;11.67;;;6.80;;
6362;SDS011;3214;49.932;8.494;2024-02-26T09:28:04;9.20;;;6.53;;
6362;SDS011;3214;49.932;8.494;2024-02-26T09:30:34;11.70;;;6.77;;
6362;SDS011;3214;49.932;8.494;2024-02-26T09:33:01;11.30;;;6.57;;
6362;SDS011;3214;49.932;8.494;2024-02-26T09:35:28;10.47;;;6.13;;
6362;SDS011;3214;49.932;8.494;2024-02-26T09:37:55;10.93;;;6.60;;
6362;SDS011;3214;49.932;8.494;2024-02-26T09:40:22;10.93;;;6.67;;
6362;SDS011;3214;49.932;8.494;2024-02-26T09:42:49;11.07;;;5.70;;
6362;SDS011;3214;49.932;8.494;2024-02-26T09:45:21;9.70;;;6.27;;
6362;SDS011;3214;49.932;8.494;2024-02-26T09:47:51;12.00;;;6.97;;
6362;SDS011;3214;49.932;8.494;2024-02-26T09:50:19;10.07;;;6.80;;
6362;SDS011;3214;49.932;8.494;2024-02-26T09:52:48;8.77;;;6.20;;
6362;SDS011;3214;49.932;8.494;2024-02-26T09:55:15;7.93;;;5.20;;
6362;SDS011;3214;49.932;8.494;2024-02-26T09:57:44;9.60;;;5.90;;
6362;SDS011;3214;49.932;8.494;2024-02-26T10:00:14;8.67;;;5.47;;
6362;SDS011;3214;49.932;8.494;2024-02-26T10:02:45;9.63;;;5.53;;
6362;SDS011;3214;49.932;8.494;2024-02-26T10:05:14;11.20;;;6.00;;
6362;SDS011;3214;49.932;8.494;2024-02-26T10:07:44;10.00;;;6.20;;
6362;SDS011;3214;49.932;8.494;2024-02-26T10:10:12;9.17;;;5.93;;
6362;SDS011;3214;49.932;8.494;2024-02-26T10:12:39;10.33;;;5.90;;
6362;SDS011;3214;49.932;8.494;2024-02-26T10:15:06;9.53;;;6.30;;
6362;SDS011;3214;49.932;8.494;2024-02-26T10:17:34;8.60;;;5.83;;
6362;SDS011;3214;49.932;8.494;2024-02-26T10:20:11;8.70;;;5.50;;
6362;SDS011;3214;49.932;8.494;2024-02-26T10:22:42;8.03;;;5.37;;
6362;SDS011;3214;49.932;8.494;2024-02-26T10:25:09;7.80;;;5.30;;
6362;SDS011;3214;49.932;8.494;2024-02-26T10:27:36;9.10;;;5.60;;
6362;SDS011;3214;49.932;8.494;2024-02-26T10:30:03;8.17;;;5.60;;
6362;SDS011;3214;49.932;8.494;2024-02-26T10:32:41;9.50;;;5.20;;
6362;SDS011;3214;49.932;8.494;2024-02-26T10:35:09;8.57;;;5.57;;
6362;SDS011;3214;49.932;8.494;2024-02-26T10:37:38;9.30;;;5.50;;
6362;SDS011;3214;49.932;8.494;2024-02-26T10:40:06;8.97;;;5.27;;
6362;SDS011;3214;49.932;8.494;2024-02-26T10:42:36;10.40;;;5.60;;
6362;SDS011;3214;49.932;8.494;2024-02-26T10:45:04;7.80;;;5.27;;
6362;SDS011;3214;49.932;8.494;2024-02-26T10:47:34;8.03;;;5.00;;
6362;SDS011;3214;49.932;8.494;2024-02-26T10:50:02;6.83;;;4.97;;
6362;SDS011;3214;49.932;8.494;2024-02-26T10:52:31;9.07;;;5.40;;
6362;SDS011;3214;49.932;8.494;2024-02-26T10:55:02;7.47;;;5.17;;
6362;SDS011;3214;49.932;8.494;2024-02-26T10:57:31;7.67;;;5.00;;
6362;SDS011;3214;49.932;8.494;2024-02-26T11:00:03;6.00;;;4.50;;
6362;SDS011;3214;49.932;8.494;2024-02-26T11:02:31;7.20;;;5.00;;
6362;SDS011;3214;49.932;8.494;2024-02-26T11:05:00;7.63;;;5.07;;
6362;SDS011;3214;49.932;8.494;2024-02-26T11:07:28;7.57;;;5.23;;
6362;SDS011;3214;49.932;8.494;2024-02-26T11:09:57;7.50;;;4.97;;
6362;SDS011;3214;49.932;8.494;2024-02-26T11:12:28;7.53;;;4.83;;
6362;SDS011;3214;49.932;8.494;2024-02-26T11:14:57;7.20;;;4.60;;
6362;SDS011;3214;49.932;8.494;2024-02-26T11:17:26;6.43;;;4.90;;
6362;SDS011;3214;49.932;8.494;2024-02-26T11:19:56;6.87;;;4.70;;
6362;SDS011;3214;49.932;8.494;2024-02-26T11:22:24;7.97;;;5.07;;
6362;SDS011;3214;49.932;8.494;2024-02-26T11:24:51;7.53;;;5.10;;
6362;SDS011;3214;49.932;8.494;2024-02-26T11:27:19;7.43;;;4.70;;
6362;SDS011;3214;49.932;8.494;2024-02-26T11:29:51;8.73;;;5.03;;
6362;SDS011;3214;49.932;8.494;2024-02-26T11:32:19;6.43;;;4.77;;
6362;SDS011;3214;49.932;8.494;2024-02-26T11:34:47;7.80;;;5.20;;
6362;SDS011;3214;49.932;8.494;2024-02-26T11:37:15;7.27;;;4.87;;
6362;SDS011;3214;49.932;8.494;2024-02-26T11:39:44;7.67;;;5.33;;
6362;SDS011;3214;49.932;8.494;2024-02-26T11:42:14;9.37;;;5.33;;
6362;SDS011;3214;49.932;8.494;2024-02-26T11:44:42;6.47;;;4.93;;
6362;SDS011;3214;49.932;8.494;2024-02-26T11:47:14;9.00;;;5.20;;
6362;SDS011;3214;49.932;8.494;2024-02-26T11:49:44;7.43;;;5.60;;
6362;SDS011;3214;49.932;8.494;2024-02-26T11:52:12;7.87;;;5.33;;
6362;SDS011;3214;49.932;8.494;2024-02-26T11:54:43;9.83;;;5.83;;
6362;SDS011;3214;49.932;8.494;2024-02-26T11:57:21;9.50;;;6.20;;
6362;SDS011;3214;49.932;8.494;2024-02-26T11:59:52;10.33;;;6.67;;
6362;SDS011;3214;49.932;8.494;2024-02-26T12:02:41;14.07;;;6.97;;
6362;SDS011;3214;49.932;8.494;2024-02-26T12:05:11;6.70;;;4.93;;
6362;SDS011;3214;49.932;8.494;2024-02-26T12:07:42;8.13;;;5.00;;
6362;SDS011;3214;49.932;8.494;2024-02-26T12:10:21;8.27;;;4.80;;
6362;SDS011;3214;49.932;8.494;2024-02-26T12:12:53;5.63;;;4.30;;
6362;SDS011;3214;49.932;8.494;2024-02-26T12:15:24;6.60;;;4.20;;
6362;SDS011;3214;49.932;8.494;2024-02-26T12:17:57;6.10;;;4.23;;
6362;SDS011;3214;49.932;8.494;2024-02-26T12:20:26;7.90;;;4.57;;
6362;SDS011;3214;49.932;8.494;2024-02-26T12:22:52;9.00;;;4.63;;
6362;SDS011;3214;49.932;8.494;2024-02-26T12:25:22;7.97;;;5.47;;
6362;SDS011;3214;49.932;8.494;2024-02-26T12:27:50;8.00;;;5.37;;
6362;SDS011;3214;49.932;8.494;2024-02-26T12:30:17;7.03;;;4.93;;
6362;SDS011;3214;49.932;8.494;2024-02-26T12:32:44;8.33;;;5.20;;
6362;SDS011;3214;49.932;8.494;2024-02-26T12:35:13;6.73;;;4.73;;
6362;SDS011;3214;49.932;8.494;2024-02-26T12:37:41;6.70;;;4.93;;
6362;SDS011;3214;49.932;8.494;2024-02-26T12:40:08;5.53;;;4.30;;
6362;SDS011;3214;49.932;8.494;2024-02-26T12:42:36;6.73;;;5.00;;
6362;SDS011;3214;49.932;8.494;2024-02-26T12:45:05;6.53;;;4.87;;
6362;SDS011;3214;49.932;8.494;2024-02-26T12:47:35;8.73;;;5.47;;
6362;SDS011;3214;49.932;8.494;2024-02-26T12:50:03;6.30;;;4.70;;
6362;SDS011;3214;49.932;8.494;2024-02-26T12:52:32;8.03;;;5.03;;
6362;SDS011;3214;49.932;8.494;2024-02-26T12:55:00;6.17;;;4.70;;
6362;SDS011;3214;49.932;8.494;2024-02-26T12:57:29;7.03;;;5.17;;
6362;SDS011;3214;49.932;8.494;2024-02-26T12:59:56;6.73;;;4.93;;
6362;SDS011;3214;49.932;8.494;2024-02-26T13:02:24;6.20;;;4.30;;
6362;SDS011;3214;49.932;8.494;2024-02-26T13:04:51;5.93;;;4.50;;
6362;SDS011;3214;49.932;8.494;2024-02-26T13:07:19;7.33;;;4.90;;
6362;SDS011;3214;49.932;8.494;2024-02-26T13:09:48;6.37;;;4.77;;
6362;SDS011;3214;49.932;8.494;2024-02-26T13:12:15;5.60;;;4.27;;
6362;SDS011;3214;49.932;8.494;2024-02-26T13:14:43;9.23;;;4.97;;
6362;SDS011;3214;49.932;8.494;2024-02-26T13:17:10;6.20;;;4.70;;
6362;SDS011;3214;49.932;8.494;2024-02-26T13:19:48;6.87;;;4.67;;
6362;SDS011;3214;49.932;8.494;2024-02-26T13:22:16;7.03;;;4.60;;
6362;SDS011;3214;49.932;8.494;2024-02-26T13:24:54;5.83;;;4.30;;
6362;SDS011;3214;49.932;8.494;2024-02-26T13:27:22;5.33;;;4.20;;
6362;SDS011;3214;49.932;8.494;2024-02-26T13:29:49;12.67;;;4.80;;
6362;SDS011;3214;49.932;8.494;2024-02-26T13:32:31;6.07;;;4.27;;
6362;SDS011;3214;49.932;8.494;2024-02-26T13:35:06;9.37;;;4.43;;
6362;SDS011;3214;49.932;8.494;2024-02-26T13:37:34;8.07;;;4.00;;
6362;SDS011;3214;49.932;8.494;2024-02-26T13:40:02;5.97;;;4.30;;
6362;SDS011;3214;49.932;8.494;2024-02-26T13:42:31;5.67;;;4.00;;
6362;SDS011;3214;49.932;8.494;2024-02-26T13:44:58;5.80;;;4.50;;
6362;SDS011;3214;49.932;8.494;2024-02-26T13:47:25;5.70;;;4.40;;
6362;SDS011;3214;49.932;8.494;2024-02-26T13:49:51;6.77;;;4.43;;
6362;SDS011;3214;49.932;8.494;2024-02-26T13:52:18;6.57;;;4.03;;
6362;SDS011;3214;49.932;8.494;2024-02-26T13:54:46;6.07;;;3.70;;
6362;SDS011;3214;49.932;8.494;2024-02-26T13:57:14;5.50;;;4.00;;
6362;SDS011;3214;49.932;8.494;2024-02-26T13:59:41;6.43;;;3.93;;
6362;SDS011;3214;49.932;8.494;2024-02-26T14:02:08;6.40;;;3.50;;
6362;SDS011;3214;49.932;8.494;2024-02-26T14:04:35;4.67;;;4.17;;
6362;SDS011;3214;49.932;8.494;2024-02-26T14:07:03;5.47;;;3.83;;
6362;SDS011;3214;49.932;8.494;2024-02-26T14:09:31;5.13;;;4.00;;
6362;SDS011;3214;49.932;8.494;2024-02-26T14:11:58;6.63;;;3.90;;
6362;SDS011;3214;49.932;8.494;2024-02-26T14:14:27;4.13;;;3.53;;
6362;SDS011;3214;49.932;8.494;2024-02-26T14:16:54;5.70;;;3.60;;
6362;SDS011;3214;49.932;8.494;2024-02-26T14:19:21;6.07;;;4.13;;
6362;SDS011;3214;49.932;8.494;2024-02-26T14:21:48;5.53;;;3.93;;
6362;SDS011;3214;49.932;8.494;2024-02-26T14:24:19;7.67;;;4.13;;
6362;SDS011;3214;49.932;8.494;2024-02-26T14:26:47;7.83;;;3.93;;
6362;SDS011;3214;49.932;8.494;2024-02-26T14:29:17;5.67;;;4.00;;
6362;SDS011;3214;49.932;8.494;2024-02-26T14:31:45;6.60;;;3.53;;
6362;SDS011;3214;49.932;8.494;2024-02-26T14:34:12;5.53;;;4.00;;
6362;SDS011;3214;49.932;8.494;2024-02-26T14:36:39;5.50;;;3.60;;
6362;SDS011;3214;49.932;8.494;2024-02-26T14:39:07;5.63;;;3.20;;
6362;SDS011;3214;49.932;8.494;2024-02-26T14:41:40;6.50;;;4.20;;
6362;SDS011;3214;49.932;8.494;2024-02-26T14:44:13;6.00;;;4.17;;
6362;SDS011;3214;49.932;8.494;2024-02-26T14:46:40;5.73;;;3.83;;
6362;SDS011;3214;49.932;8.494;2024-02-26T14:49:09;7.90;;;3.90;;
6362;SDS011;3214;49.932;8.494;2024-02-26T14:51:37;5.13;;;3.97;;
6362;SDS011;3214;49.932;8.494;2024-02-26T14:54:04;5.37;;;3.87;;
6362;SDS011;3214;49.932;8.494;2024-02-26T14:56:32;7.03;;;4.10;;
6362;SDS011;3214;49.932;8.494;2024-02-26T14:58:59;7.90;;;4.20;;
6362;SDS011;3214;49.932;8.494;2024-02-26T15:01:26;7.03;;;4.47;;
6362;SDS011;3214;49.932;8.494;2024-02-26T15:03:53;8.00;;;4.93;;
6362;SDS011;3214;49.932;8.494;2024-02-26T15:06:28;5.80;;;4.13;;
6362;SDS011;3214;49.932;8.494;2024-02-26T15:08:55;6.10;;;4.20;;
6362;SDS011;3214;49.932;8.494;2024-02-26T15:11:22;6.13;;;4.63;;
6362;SDS011;3214;49.932;8.494;2024-02-26T15:13:49;5.97;;;4.47;;
6362;SDS011;3214;49.932;8.494;2024-02-26T15:16:17;10.93;;;5.20;;
6362;SDS011;3214;49.932;8.494;2024-02-26T15:18:45;6.90;;;4.67;;
6362;SDS011;3214;49.932;8.494;2024-02-26T15:21:12;6.77;;;4.87;;